Francistown, Botswana
Current Conditions -  °F | °C
As of 7:00 AM on Saturday 29 Nov 2014 (Local Time) from FBSP Reporting Station
Clear Clear  
Wind Chill: 73°   Ceiling: Unl
Heat Index: 73°   Visibility: 6mi
Dew Point: 59°   Wind: 13mph
Humidity: 61%   Direction: 110°ESE
Pressure: 30.06"   Gusts: NA
Location:  21.17°S, 27.5°E
Report Text: FBSP 290500Z 11011KT CAVOK 23/15 Q1018
Loading
Personal Weather Stations






























Interactive Weather Map New forecast layout! Learn more

10-Day Weather Forecast

Advertisements
Track Severe Weather on mobile